Flight Track Log - Related Links

Times and Time Zones

All times are in EDT time to prevent confusion due to time zone crossing. See the AAR8737 flight status page for this flight to view local times or setup timezone preferences in your user account.

Time Position Orientation Groundspeed Altitude Reporting Facility
EDT Latitude Longitude Course Direction KTS MPH feet Rate Location/Type
Sun 04:42:00 AM 37.3315 126.8617 166° South  Level Estimated
Sun 04:43:00 AM 37.2559 126.8853 166° South  Level Estimated
Sun 04:43:01 AM 37.5110 126.6770 166° South 8,100  Level FlightAware ADS-B
Sun 04:43:26 AM 37.4790 126.6840 170° South 9,100 1,762 Climbing FlightAware ADS-B
Sun 04:44:06 AM 37.4310 126.6930 172° South 10,600 1,697 Climbing FlightAware ADS-B
Sun 04:44:52 AM 37.3580 126.7060 172° South 11,800 1,588 Climbing FlightAware ADS-B
Sun 04:45:36 AM 37.2770 126.7220 171° South 12,700 1,595 Climbing FlightAware ADS-B
Sun 04:46:16 AM 37.2070 126.7350 172° South 14,100 1,737 Climbing FlightAware ADS-B
Sun 04:47:30 AM 37.0800 126.7590 171° South 383 441 16,000 1,642 Climbing FlightAware ADS-B
Sun 04:48:02 AM 37.0270 126.7680 172° South 383 441 17,000 750 Climbing FlightAware ADS-B
Sun 04:48:50 AM 36.9550 126.7810 172° South 383 441 17,000 1,935 Level FlightAware ADS-B
Sun 04:49:35 AM 36.8270 126.8060 171° South 416 479 20,000 2,571 Climbing FlightAware ADS-B
Sun 04:50:00 AM 36.7870 126.8140 171° South 416 479 20,000  Level FlightAware ADS-B
Sun 04:51:52 AM 36.6060 126.8490 171° South 416 479 20,000  Level FlightAware ADS-B
Sun 04:52:53 AM 36.5070 126.8690 171° South 416 479 20,000  Level FlightAware ADS-B
Sun 04:53:27 AM 36.4520 126.8800 171° South 416 479 20,000  Level FlightAware ADS-B
Sun 04:56:00 AM 36.2659 126.9665 159° South  Level Estimated
Sun 04:57:00 AM 36.1930 127.0003 159° South  Level Estimated
Sun 04:58:00 AM 36.1200 127.0341 160° South  Level Estimated
Sun 04:59:00 AM 36.0470 127.0677 160° South  Level Estimated
Sun 05:00:00 AM 35.9740 127.1014 160° South  Level Estimated
Sun 05:01:00 AM 35.9009 127.1349 160° South  Level Estimated
Sun 05:02:00 AM 35.8279 127.1684 160° South  Level Estimated
Sun 05:03:00 AM 35.7549 127.2019 160° South  Level Estimated
Sun 05:04:00 AM 35.6818 127.2352 160° South  Level Estimated
Sun 05:05:00 AM 35.6088 127.2685 160° South  Level Estimated
Sun 05:06:00 AM 35.5357 127.3018 160° South  Level Estimated
Sun 05:07:00 AM 35.4626 127.3350 160° South  Level Estimated
Sun 05:08:00 AM 35.3895 127.3681 160° South  Level Estimated
Sun 05:09:00 AM 35.3165 127.4012 160° South  Level Estimated
Sun 05:10:00 AM 35.2434 127.4342 160° South  Level Estimated
Sun 05:11:00 AM 35.1702 127.4672 160° South  Level Estimated
Sun 05:12:00 AM 35.0971 127.5001 160° South  Level Estimated
Sun 05:13:00 AM 35.0240 127.5329 160° South  Level Estimated
Sun 05:14:00 AM 34.9509 127.5657 160° South  Level Estimated
Sun 05:15:00 AM 34.8777 127.5984 160° South  Level Estimated
Sun 05:16:00 AM 34.8398 127.6153 160° South  Level Estimated
Sun 05:17:00 AM 34.8398 127.6153 180° South  Level Estimated
Sun 05:18:00 AM 34.8398 127.6153 180° South  Level Estimated
Sun 05:19:00 AM 34.8398 127.6153 180° South  Level Estimated
Sun 05:20:00 AM 34.8398 127.6153 180° South  Level Estimated
Sun 05:21:00 AM 34.8398 127.6153 180° South  Level Estimated

Login

Don't have an account? Register now (free) for customized features, flight alerts, and more!